sensor_id;sensor_type;location;lat;lon;timestamp;noise_LAeq;noise_LA_min;noise_LA_max;noise_LA01;noise_LA95
71026;Laerm;62048;52.312;4.858;2022-10-16T00:00:01;32.11;31.26;33.08;;
71026;Laerm;62048;52.312;4.858;2022-10-16T00:00:11;32.10;30.94;32.92;;
71026;Laerm;62048;52.312;4.858;2022-10-16T00:00:22;32.10;31.23;33.08;;
71026;Laerm;62048;52.312;4.858;2022-10-16T00:00:33;32.10;30.85;32.99;;
71026;Laerm;62048;52.312;4.858;2022-10-16T00:00:44;32.14;30.99;33.22;;
71026;Laerm;62048;52.312;4.858;2022-10-16T00:00:55;32.09;31.16;33.01;;
71026;Laerm;62048;52.312;4.858;2022-10-16T00:01:09;32.14;31.17;33.01;;
71026;Laerm;62048;52.312;4.858;2022-10-16T00:01:22;32.15;31.40;33.05;;
71026;Laerm;62048;52.312;4.858;2022-10-16T00:01:33;32.12;31.29;33.09;;
71026;Laerm;62048;52.312;4.858;2022-10-16T00:01:43;32.11;31.20;33.13;;
71026;Laerm;62048;52.312;4.858;2022-10-16T00:01:53;32.13;31.08;33.13;;
71026;Laerm;62048;52.312;4.858;2022-10-16T00:02:03;32.13;31.28;33.09;;
71026;Laerm;62048;52.312;4.858;2022-10-16T00:02:14;32.13;31.12;32.93;;
71026;Laerm;62048;52.312;4.858;2022-10-16T00:02:24;32.10;30.79;33.07;;
71026;Laerm;62048;52.312;4.858;2022-10-16T00:02:34;32.12;31.01;32.88;;
71026;Laerm;62048;52.312;4.858;2022-10-16T00:02:45;32.04;31.13;33.15;;
71026;Laerm;62048;52.312;4.858;2022-10-16T00:02:55;32.11;31.22;33.08;;
71026;Laerm;62048;52.312;4.858;2022-10-16T00:03:05;32.06;31.19;32.91;;
71026;Laerm;62048;52.312;4.858;2022-10-16T00:03:16;32.10;31.24;32.92;;
71026;Laerm;62048;52.312;4.858;2022-10-16T00:03:26;32.13;31.14;32.99;;
71026;Laerm;62048;52.312;4.858;2022-10-16T00:03:37;32.10;31.30;32.87;;
71026;Laerm;62048;52.312;4.858;2022-10-16T00:03:48;32.12;31.27;33.17;;
71026;Laerm;62048;52.312;4.858;2022-10-16T00:03:58;32.13;31.17;32.83;;
71026;Laerm;62048;52.312;4.858;2022-10-16T00:04:09;32.11;31.20;33.14;;
71026;Laerm;62048;52.312;4.858;2022-10-16T00:04:20;32.11;31.14;33.12;;
71026;Laerm;62048;52.312;4.858;2022-10-16T00:04:30;32.10;31.23;33.14;;
71026;Laerm;62048;52.312;4.858;2022-10-16T00:04:40;32.10;31.27;33.13;;
71026;Laerm;62048;52.312;4.858;2022-10-16T00:04:50;32.13;30.80;33.10;;
71026;Laerm;62048;52.312;4.858;2022-10-16T00:05:01;32.12;31.21;32.98;;
71026;Laerm;62048;52.312;4.858;2022-10-16T00:05:11;32.12;31.16;33.10;;
71026;Laerm;62048;52.312;4.858;2022-10-16T00:05:21;32.10;31.17;32.94;;
71026;Laerm;62048;52.312;4.858;2022-10-16T00:05:32;32.12;31.05;33.08;;
71026;Laerm;62048;52.312;4.858;2022-10-16T00:05:43;32.13;30.90;33.06;;
71026;Laerm;62048;52.312;4.858;2022-10-16T00:05:53;32.12;31.34;33.15;;
71026;Laerm;62048;52.312;4.858;2022-10-16T00:06:04;32.11;31.13;32.96;;
71026;Laerm;62048;52.312;4.858;2022-10-16T00:06:15;32.14;31.26;32.98;;
71026;Laerm;62048;52.312;4.858;2022-10-16T00:06:26;32.12;31.09;32.90;;
71026;Laerm;62048;52.312;4.858;2022-10-16T00:06:38;32.11;31.02;33.06;;
71026;Laerm;62048;52.312;4.858;2022-10-16T00:06:48;32.14;31.30;32.92;;
71026;Laerm;62048;52.312;4.858;2022-10-16T00:06:58;32.11;31.19;33.14;;
71026;Laerm;62048;52.312;4.858;2022-10-16T00:07:09;32.11;31.01;33.14;;
71026;Laerm;62048;52.312;4.858;2022-10-16T00:07:19;32.13;31.28;33.00;;
71026;Laerm;62048;52.312;4.858;2022-10-16T00:07:29;32.11;31.06;32.98;;
71026;Laerm;62048;52.312;4.858;2022-10-16T00:07:39;32.12;30.99;33.27;;
71026;Laerm;62048;52.312;4.858;2022-10-16T00:07:49;32.10;30.85;32.95;;
71026;Laerm;62048;52.312;4.858;2022-10-16T00:08:00;32.09;31.27;32.86;;
71026;Laerm;62048;52.312;4.858;2022-10-16T00:08:11;32.10;31.19;33.10;;
71026;Laerm;62048;52.312;4.858;2022-10-16T00:08:21;32.08;31.23;32.98;;
71026;Laerm;62048;52.312;4.858;2022-10-16T00:08:31;32.16;31.07;33.06;;
71026;Laerm;62048;52.312;4.858;2022-10-16T00:08:42;32.13;31.13;32.98;;
71026;Laerm;62048;52.312;4.858;2022-10-16T00:08:52;32.11;31.34;33.08;;
71026;Laerm;62048;52.312;4.858;2022-10-16T00:09:03;32.12;31.21;32.98;;
71026;Laerm;62048;52.312;4.858;2022-10-16T00:09:13;32.10;31.18;33.08;;
71026;Laerm;62048;52.312;4.858;2022-10-16T00:09:23;32.10;31.31;33.25;;
71026;Laerm;62048;52.312;4.858;2022-10-16T00:09:34;32.12;31.21;33.08;;
71026;Laerm;62048;52.312;4.858;2022-10-16T00:09:45;32.12;31.23;32.98;;
71026;Laerm;62048;52.312;4.858;2022-10-16T00:09:55;32.14;31.10;32.96;;
71026;Laerm;62048;52.312;4.858;2022-10-16T00:10:06;32.11;31.12;33.00;;
71026;Laerm;62048;52.312;4.858;2022-10-16T00:10:16;32.07;31.25;32.78;;
71026;Laerm;62048;52.312;4.858;2022-10-16T00:10:26;32.12;31.15;33.17;;
71026;Laerm;62048;52.312;4.858;2022-10-16T00:10:37;32.10;30.73;32.86;;
71026;Laerm;62048;52.312;4.858;2022-10-16T00:10:47;32.12;30.91;33.07;;
71026;Laerm;62048;52.312;4.858;2022-10-16T00:11:01;32.11;31.11;33.25;;
71026;Laerm;62048;52.312;4.858;2022-10-16T00:11:12;32.07;31.02;33.01;;
71026;Laerm;62048;52.312;4.858;2022-10-16T00:11:35;32.10;31.03;33.36;;
71026;Laerm;62048;52.312;4.858;2022-10-16T00:11:46;32.09;31.29;33.20;;
71026;Laerm;62048;52.312;4.858;2022-10-16T00:11:57;32.09;31.15;32.98;;
71026;Laerm;62048;52.312;4.858;2022-10-16T00:12:07;32.10;31.20;33.12;;
71026;Laerm;62048;52.312;4.858;2022-10-16T00:12:17;32.08;31.03;32.98;;
71026;Laerm;62048;52.312;4.858;2022-10-16T00:12:28;32.09;31.03;32.95;;
71026;Laerm;62048;52.312;4.858;2022-10-16T00:12:38;32.08;31.15;33.07;;
71026;Laerm;62048;52.312;4.858;2022-10-16T00:12:48;32.07;31.19;32.98;;
71026;Laerm;62048;52.312;4.858;2022-10-16T00:12:59;32.08;31.18;33.12;;
71026;Laerm;62048;52.312;4.858;2022-10-16T00:13:09;32.09;31.20;32.83;;
71026;Laerm;62048;52.312;4.858;2022-10-16T00:13:20;32.11;31.02;32.92;;
71026;Laerm;62048;52.312;4.858;2022-10-16T00:13:31;32.08;31.06;32.99;;
71026;Laerm;62048;52.312;4.858;2022-10-16T00:13:42;32.14;31.18;33.23;;
71026;Laerm;62048;52.312;4.858;2022-10-16T00:13:55;32.09;31.21;32.98;;
71026;Laerm;62048;52.312;4.858;2022-10-16T00:14:08;32.08;31.27;33.46;;
71026;Laerm;62048;52.312;4.858;2022-10-16T00:14:19;32.09;31.02;33.20;;
71026;Laerm;62048;52.312;4.858;2022-10-16T00:14:29;32.08;30.92;33.21;;
71026;Laerm;62048;52.312;4.858;2022-10-16T00:14:39;32.10;30.83;32.88;;
71026;Laerm;62048;52.312;4.858;2022-10-16T00:14:51;32.12;31.27;33.11;;
71026;Laerm;62048;52.312;4.858;2022-10-16T00:15:02;32.09;31.17;32.97;;
71026;Laerm;62048;52.312;4.858;2022-10-16T00:15:12;32.07;31.30;33.03;;
71026;Laerm;62048;52.312;4.858;2022-10-16T00:15:22;32.08;31.31;32.90;;
71026;Laerm;62048;52.312;4.858;2022-10-16T00:15:33;32.08;31.14;32.95;;
71026;Laerm;62048;52.312;4.858;2022-10-16T00:15:46;32.08;31.28;32.90;;
71026;Laerm;62048;52.312;4.858;2022-10-16T00:15:56;32.07;30.65;32.97;;
71026;Laerm;62048;52.312;4.858;2022-10-16T00:16:07;32.05;31.10;32.92;;
71026;Laerm;62048;52.312;4.858;2022-10-16T00:16:18;32.08;30.88;32.81;;
71026;Laerm;62048;52.312;4.858;2022-10-16T00:16:29;32.09;31.21;32.92;;
71026;Laerm;62048;52.312;4.858;2022-10-16T00:16:40;32.09;30.97;32.98;;
71026;Laerm;62048;52.312;4.858;2022-10-16T00:16:50;32.02;30.93;32.81;;
71026;Laerm;62048;52.312;4.858;2022-10-16T00:17:00;32.04;31.13;32.85;;
71026;Laerm;62048;52.312;4.858;2022-10-16T00:17:11;32.05;31.18;32.79;;
71026;Laerm;62048;52.312;4.858;2022-10-16T00:17:21;32.09;31.24;33.03;;
71026;Laerm;62048;52.312;4.858;2022-10-16T00:17:31;32.07;31.14;32.98;;
71026;Laerm;62048;52.312;4.858;2022-10-16T00:17:41;32.09;31.34;32.93;;
71026;Laerm;62048;52.312;4.858;2022-10-16T00:17:52;32.07;30.97;33.21;;
71026;Laerm;62048;52.312;4.858;2022-10-16T00:18:03;32.10;31.25;32.97;;
71026;Laerm;62048;52.312;4.858;2022-10-16T00:18:13;32.07;31.19;32.98;;
71026;Laerm;62048;52.312;4.858;2022-10-16T00:18:24;32.08;31.25;33.03;;
71026;Laerm;62048;52.312;4.858;2022-10-16T00:18:35;32.08;31.09;32.81;;
71026;Laerm;62048;52.312;4.858;2022-10-16T00:18:45;32.05;31.14;32.98;;
71026;Laerm;62048;52.312;4.858;2022-10-16T00:18:55;32.07;30.94;33.06;;
71026;Laerm;62048;52.312;4.858;2022-10-16T00:19:06;32.09;31.36;32.97;;
71026;Laerm;62048;52.312;4.858;2022-10-16T00:19:16;32.07;30.98;33.07;;
71026;Laerm;62048;52.312;4.858;2022-10-16T00:19:27;32.06;31.04;32.96;;
71026;Laerm;62048;52.312;4.858;2022-10-16T00:19:37;32.07;30.91;32.85;;
71026;Laerm;62048;52.312;4.858;2022-10-16T00:19:47;32.11;31.12;32.96;;
71026;Laerm;62048;52.312;4.858;2022-10-16T00:19:57;32.07;30.82;32.99;;
71026;Laerm;62048;52.312;4.858;2022-10-16T00:20:08;32.06;31.41;32.99;;
71026;Laerm;62048;52.312;4.858;2022-10-16T00:20:18;32.09;31.16;32.94;;
71026;Laerm;62048;52.312;4.858;2022-10-16T00:20:28;32.11;31.33;32.88;;
71026;Laerm;62048;52.312;4.858;2022-10-16T00:20:41;32.07;31.22;33.04;;
71026;Laerm;62048;52.312;4.858;2022-10-16T00:20:51;32.10;31.18;33.04;;
71026;Laerm;62048;52.312;4.858;2022-10-16T00:21:02;32.09;31.24;33.03;;
71026;Laerm;62048;52.312;4.858;2022-10-16T00:21:15;32.06;31.12;32.80;;
71026;Laerm;62048;52.312;4.858;2022-10-16T00:21:26;32.09;31.11;33.06;;
71026;Laerm;62048;52.312;4.858;2022-10-16T00:21:37;32.05;30.94;32.97;;
71026;Laerm;62048;52.312;4.858;2022-10-16T00:21:47;32.10;31.12;32.92;;
71026;Laerm;62048;52.312;4.858;2022-10-16T00:21:58;32.08;31.12;32.85;;
71026;Laerm;62048;52.312;4.858;2022-10-16T00:22:08;32.04;31.28;32.96;;
71026;Laerm;62048;52.312;4.858;2022-10-16T00:22:18;32.05;31.27;33.11;;
71026;Laerm;62048;52.312;4.858;2022-10-16T00:22:28;32.03;30.97;32.92;;
71026;Laerm;62048;52.312;4.858;2022-10-16T00:22:39;32.09;31.23;32.93;;
71026;Laerm;62048;52.312;4.858;2022-10-16T00:22:50;32.10;31.17;33.19;;
71026;Laerm;62048;52.312;4.858;2022-10-16T00:23:00;32.09;31.08;32.83;;
71026;Laerm;62048;52.312;4.858;2022-10-16T00:23:10;32.09;31.17;32.87;;
71026;Laerm;62048;52.312;4.858;2022-10-16T00:23:20;32.06;31.30;33.01;;
71026;Laerm;62048;52.312;4.858;2022-10-16T00:23:31;32.07;31.11;33.07;;
71026;Laerm;62048;52.312;4.858;2022-10-16T00:23:41;32.06;31.07;33.08;;
71026;Laerm;62048;52.312;4.858;2022-10-16T00:23:56;32.03;31.20;32.85;;
71026;Laerm;62048;52.312;4.858;2022-10-16T00:24:08;32.04;31.06;33.03;;
71026;Laerm;62048;52.312;4.858;2022-10-16T00:24:18;32.06;31.05;32.99;;
71026;Laerm;62048;52.312;4.858;2022-10-16T00:24:28;32.06;30.94;33.05;;
71026;Laerm;62048;52.312;4.858;2022-10-16T00:24:39;32.08;31.08;33.04;;
71026;Laerm;62048;52.312;4.858;2022-10-16T00:24:49;32.04;30.88;33.11;;
71026;Laerm;62048;52.312;4.858;2022-10-16T00:25:00;32.07;31.20;32.93;;
71026;Laerm;62048;52.312;4.858;2022-10-16T00:25:10;32.04;31.04;32.81;;
71026;Laerm;62048;52.312;4.858;2022-10-16T00:25:20;32.05;31.18;32.96;;
71026;Laerm;62048;52.312;4.858;2022-10-16T00:25:31;32.04;31.07;32.96;;
71026;Laerm;62048;52.312;4.858;2022-10-16T00:25:42;32.05;31.14;32.92;;
71026;Laerm;62048;52.312;4.858;2022-10-16T00:25:56;32.09;31.22;33.00;;
71026;Laerm;62048;52.312;4.858;2022-10-16T00:26:08;32.11;31.20;32.87;;
71026;Laerm;62048;52.312;4.858;2022-10-16T00:26:19;32.05;31.07;32.93;;
71026;Laerm;62048;52.312;4.858;2022-10-16T00:26:30;32.07;31.26;33.06;;
71026;Laerm;62048;52.312;4.858;2022-10-16T00:26:41;32.06;31.09;32.96;;
71026;Laerm;62048;52.312;4.858;2022-10-16T00:26:51;32.07;30.99;32.80;;
71026;Laerm;62048;52.312;4.858;2022-10-16T00:27:02;32.03;31.12;32.95;;
71026;Laerm;62048;52.312;4.858;2022-10-16T00:27:12;32.06;31.24;33.28;;
71026;Laerm;62048;52.312;4.858;2022-10-16T00:27:22;32.03;31.21;32.84;;
71026;Laerm;62048;52.312;4.858;2022-10-16T00:27:33;32.05;31.19;33.09;;
71026;Laerm;62048;52.312;4.858;2022-10-16T00:27:43;32.06;31.28;32.93;;
71026;Laerm;62048;52.312;4.858;2022-10-16T00:27:53;32.05;30.88;33.10;;
71026;Laerm;62048;52.312;4.858;2022-10-16T00:28:04;32.07;31.11;32.89;;
71026;Laerm;62048;52.312;4.858;2022-10-16T00:28:14;32.07;31.32;33.00;;
71026;Laerm;62048;52.312;4.858;2022-10-16T00:28:24;32.07;31.12;33.29;;
71026;Laerm;62048;52.312;4.858;2022-10-16T00:28:35;32.05;31.20;33.02;;
71026;Laerm;62048;52.312;4.858;2022-10-16T00:28:46;32.06;31.05;33.10;;
71026;Laerm;62048;52.312;4.858;2022-10-16T00:28:56;32.10;30.96;32.97;;
71026;Laerm;62048;52.312;4.858;2022-10-16T00:29:07;32.08;31.18;32.89;;
71026;Laerm;62048;52.312;4.858;2022-10-16T00:29:18;32.05;31.28;32.92;;
71026;Laerm;62048;52.312;4.858;2022-10-16T00:29:28;32.08;30.90;32.98;;
71026;Laerm;62048;52.312;4.858;2022-10-16T00:29:38;32.04;31.10;33.00;;
71026;Laerm;62048;52.312;4.858;2022-10-16T00:29:51;32.07;31.22;33.14;;
71026;Laerm;62048;52.312;4.858;2022-10-16T00:30:02;32.08;31.09;33.10;;
71026;Laerm;62048;52.312;4.858;2022-10-16T00:30:13;32.06;31.08;32.95;;
71026;Laerm;62048;52.312;4.858;2022-10-16T00:30:23;32.07;31.04;32.98;;
71026;Laerm;62048;52.312;4.858;2022-10-16T00:30:33;32.06;31.18;33.06;;
71026;Laerm;62048;52.312;4.858;2022-10-16T00:30:47;32.04;30.98;32.97;;
71026;Laerm;62048;52.312;4.858;2022-10-16T00:30:57;32.04;31.17;32.91;;
71026;Laerm;62048;52.312;4.858;2022-10-16T00:31:09;32.04;31.18;33.05;;
71026;Laerm;62048;52.312;4.858;2022-10-16T00:31:20;32.05;31.04;32.92;;
71026;Laerm;62048;52.312;4.858;2022-10-16T00:31:31;32.08;31.10;32.92;;
71026;Laerm;62048;52.312;4.858;2022-10-16T00:31:41;32.06;31.14;33.05;;
71026;Laerm;62048;52.312;4.858;2022-10-16T00:31:51;32.06;31.19;33.04;;
71026;Laerm;62048;52.312;4.858;2022-10-16T00:32:02;32.07;31.14;33.25;;
71026;Laerm;62048;52.312;4.858;2022-10-16T00:32:12;32.04;31.02;32.90;;
71026;Laerm;62048;52.312;4.858;2022-10-16T00:32:22;32.05;31.20;33.07;;
71026;Laerm;62048;52.312;4.858;2022-10-16T00:32:32;32.07;31.12;33.00;;
71026;Laerm;62048;52.312;4.858;2022-10-16T00:32:43;32.06;31.11;32.86;;
71026;Laerm;62048;52.312;4.858;2022-10-16T00:32:53;32.06;31.07;32.97;;
71026;Laerm;62048;52.312;4.858;2022-10-16T00:33:03;32.05;31.11;33.01;;
71026;Laerm;62048;52.312;4.858;2022-10-16T00:33:13;32.10;31.43;32.88;;
71026;Laerm;62048;52.312;4.858;2022-10-16T00:33:24;32.05;31.24;32.70;;
71026;Laerm;62048;52.312;4.858;2022-10-16T00:33:34;32.04;31.28;32.96;;
71026;Laerm;62048;52.312;4.858;2022-10-16T00:33:45;32.05;31.07;33.09;;
71026;Laerm;62048;52.312;4.858;2022-10-16T00:33:55;32.04;31.12;33.02;;
71026;Laerm;62048;52.312;4.858;2022-10-16T00:34:05;32.05;30.92;32.91;;
71026;Laerm;62048;52.312;4.858;2022-10-16T00:34:16;32.04;31.01;32.84;;
71026;Laerm;62048;52.312;4.858;2022-10-16T00:34:26;32.05;31.21;32.88;;
71026;Laerm;62048;52.312;4.858;2022-10-16T00:34:36;32.08;31.31;32.90;;
71026;Laerm;62048;52.312;4.858;2022-10-16T00:34:46;32.01;30.72;32.81;;
71026;Laerm;62048;52.312;4.858;2022-10-16T00:34:57;32.07;30.70;32.85;;
71026;Laerm;62048;52.312;4.858;2022-10-16T00:35:07;32.07;31.20;33.04;;
71026;Laerm;62048;52.312;4.858;2022-10-16T00:35:17;32.02;31.07;32.89;;
71026;Laerm;62048;52.312;4.858;2022-10-16T00:35:27;32.10;31.11;32.93;;
71026;Laerm;62048;52.312;4.858;2022-10-16T00:35:39;32.09;31.18;33.03;;
71026;Laerm;62048;52.312;4.858;2022-10-16T00:35:49;32.07;31.25;32.92;;
71026;Laerm;62048;52.312;4.858;2022-10-16T00:36:00;32.07;31.06;32.81;;
71026;Laerm;62048;52.312;4.858;2022-10-16T00:36:12;32.05;31.07;32.83;;
71026;Laerm;62048;52.312;4.858;2022-10-16T00:36:23;32.05;31.17;32.94;;
71026;Laerm;62048;52.312;4.858;2022-10-16T00:36:34;32.09;31.17;33.08;;
71026;Laerm;62048;52.312;4.858;2022-10-16T00:36:44;32.04;31.01;32.98;;
71026;Laerm;62048;52.312;4.858;2022-10-16T00:36:55;32.03;31.07;32.87;;
71026;Laerm;62048;52.312;4.858;2022-10-16T00:37:05;32.04;31.11;32.91;;
71026;Laerm;62048;52.312;4.858;2022-10-16T00:37:16;32.02;31.13;32.82;;
71026;Laerm;62048;52.312;4.858;2022-10-16T00:37:26;32.02;31.13;32.95;;
71026;Laerm;62048;52.312;4.858;2022-10-16T00:37:36;32.06;31.14;33.25;;
71026;Laerm;62048;52.312;4.858;2022-10-16T00:37:46;32.05;31.12;32.95;;
71026;Laerm;62048;52.312;4.858;2022-10-16T00:37:57;32.07;31.16;33.07;;
71026;Laerm;62048;52.312;4.858;2022-10-16T00:38:07;32.02;31.19;33.14;;
71026;Laerm;62048;52.312;4.858;2022-10-16T00:38:17;32.06;31.14;32.86;;
71026;Laerm;62048;52.312;4.858;2022-10-16T00:38:27;32.06;31.20;33.05;;
71026;Laerm;62048;52.312;4.858;2022-10-16T00:38:38;32.07;30.71;33.15;;
71026;Laerm;62048;52.312;4.858;2022-10-16T00:38:55;32.06;30.96;33.25;;
71026;Laerm;62048;52.312;4.858;2022-10-16T00:39:06;32.08;31.18;33.08;;
71026;Laerm;62048;52.312;4.858;2022-10-16T00:39:16;32.02;30.94;32.92;;
71026;Laerm;62048;52.312;4.858;2022-10-16T00:39:26;32.05;31.14;33.16;;
71026;Laerm;62048;52.312;4.858;2022-10-16T00:39:36;32.05;31.09;32.83;;
71026;Laerm;62048;52.312;4.858;2022-10-16T00:39:47;32.03;30.98;32.85;;
71026;Laerm;62048;52.312;4.858;2022-10-16T00:39:57;32.06;30.92;32.97;;
71026;Laerm;62048;52.312;4.858;2022-10-16T00:40:07;32.05;30.97;32.90;;
71026;Laerm;62048;52.312;4.858;2022-10-16T00:40:18;32.06;30.73;32.98;;
71026;Laerm;62048;52.312;4.858;2022-10-16T00:40:28;32.01;31.00;32.88;;
71026;Laerm;62048;52.312;4.858;2022-10-16T00:40:38;32.07;31.14;33.03;;
71026;Laerm;62048;52.312;4.858;2022-10-16T00:40:49;32.05;31.07;33.08;;
71026;Laerm;62048;52.312;4.858;2022-10-16T00:40:59;32.05;31.16;33.25;;
71026;Laerm;62048;52.312;4.858;2022-10-16T00:41:11;32.07;31.05;33.09;;
71026;Laerm;62048;52.312;4.858;2022-10-16T00:41:23;32.06;31.01;32.84;;
71026;Laerm;62048;52.312;4.858;2022-10-16T00:41:34;32.04;31.24;33.01;;
71026;Laerm;62048;52.312;4.858;2022-10-16T00:41:44;32.06;31.20;32.92;;
71026;Laerm;62048;52.312;4.858;2022-10-16T00:41:54;32.02;30.99;32.95;;
71026;Laerm;62048;52.312;4.858;2022-10-16T00:42:05;32.03;31.14;33.03;;
71026;Laerm;62048;52.312;4.858;2022-10-16T00:42:15;32.06;31.00;32.94;;
71026;Laerm;62048;52.312;4.858;2022-10-16T00:42:26;32.04;30.91;32.91;;
71026;Laerm;62048;52.312;4.858;2022-10-16T00:42:36;32.06;31.21;33.12;;
71026;Laerm;62048;52.312;4.858;2022-10-16T00:42:47;32.06;31.06;33.01;;
71026;Laerm;62048;52.312;4.858;2022-10-16T00:42:57;32.04;31.05;32.87;;
71026;Laerm;62048;52.312;4.858;2022-10-16T00:43:14;32.07;31.18;33.16;;
71026;Laerm;62048;52.312;4.858;2022-10-16T00:43:44;32.06;31.03;33.13;;
71026;Laerm;62048;52.312;4.858;2022-10-16T00:43:56;32.03;31.15;32.93;;
71026;Laerm;62048;52.312;4.858;2022-10-16T00:44:58;32.05;31.10;33.16;;
71026;Laerm;62048;52.312;4.858;2022-10-16T00:45:08;32.04;31.21;33.13;;
71026;Laerm;62048;52.312;4.858;2022-10-16T00:45:19;32.07;30.92;33.02;;
71026;Laerm;62048;52.312;4.858;2022-10-16T00:45:29;32.03;30.86;33.00;;
71026;Laerm;62048;52.312;4.858;2022-10-16T00:45:40;32.07;30.99;32.84;;
71026;Laerm;62048;52.312;4.858;2022-10-16T00:45:50;32.03;30.79;33.03;;
71026;Laerm;62048;52.312;4.858;2022-10-16T00:46:01;32.07;31.02;33.05;;
71026;Laerm;62048;52.312;4.858;2022-10-16T00:46:35;32.03;30.91;32.94;;
71026;Laerm;62048;52.312;4.858;2022-10-16T00:46:46;32.02;30.95;32.97;;
71026;Laerm;62048;52.312;4.858;2022-10-16T00:46:57;32.04;30.70;32.85;;
71026;Laerm;62048;52.312;4.858;2022-10-16T00:47:21;32.03;31.10;32.85;;
71026;Laerm;62048;52.312;4.858;2022-10-16T00:47:34;32.04;31.10;33.18;;
71026;Laerm;62048;52.312;4.858;2022-10-16T00:47:45;32.05;30.88;32.87;;
71026;Laerm;62048;52.312;4.858;2022-10-16T00:47:59;32.03;31.01;32.87;;
71026;Laerm;62048;52.312;4.858;2022-10-16T00:48:10;32.06;31.08;32.86;;
71026;Laerm;62048;52.312;4.858;2022-10-16T00:48:23;32.04;31.01;33.25;;
71026;Laerm;62048;52.312;4.858;2022-10-16T00:48:33;32.02;30.80;32.82;;
71026;Laerm;62048;52.312;4.858;2022-10-16T00:48:46;32.05;31.02;32.93;;
71026;Laerm;62048;52.312;4.858;2022-10-16T00:49:02;32.03;30.92;32.99;;
71026;Laerm;62048;52.312;4.858;2022-10-16T00:49:16;32.05;30.95;33.10;;
71026;Laerm;62048;52.312;4.858;2022-10-16T00:49:27;32.03;30.96;32.84;;
71026;Laerm;62048;52.312;4.858;2022-10-16T00:49:37;32.05;30.95;32.83;;
71026;Laerm;62048;52.312;4.858;2022-10-16T00:49:48;32.01;31.06;33.16;;
71026;Laerm;62048;52.312;4.858;2022-10-16T00:50:02;32.02;30.78;33.00;;
71026;Laerm;62048;52.312;4.858;2022-10-16T00:50:18;31.99;31.10;32.92;;
71026;Laerm;62048;52.312;4.858;2022-10-16T00:50:32;32.02;30.79;33.18;;
71026;Laerm;62048;52.312;4.858;2022-10-16T00:50:44;32.04;31.08;33.21;;
71026;Laerm;62048;52.312;4.858;2022-10-16T00:50:54;31.99;30.95;32.83;;
71026;Laerm;62048;52.312;4.858;2022-10-16T00:51:05;32.02;31.18;33.03;;
71026;Laerm;62048;52.312;4.858;2022-10-16T00:51:18;32.04;31.12;33.09;;
71026;Laerm;62048;52.312;4.858;2022-10-16T00:51:34;32.00;31.08;32.74;;
71026;Laerm;62048;52.312;4.858;2022-10-16T00:51:50;32.02;31.01;32.88;;
71026;Laerm;62048;52.312;4.858;2022-10-16T00:52:02;32.04;31.04;32.84;;
71026;Laerm;62048;52.312;4.858;2022-10-16T00:52:12;32.00;30.94;32.97;;
71026;Laerm;62048;52.312;4.858;2022-10-16T00:52:23;32.04;31.28;32.84;;
71026;Laerm;62048;52.312;4.858;2022-10-16T00:52:34;32.02;31.09;32.79;;
71026;Laerm;62048;52.312;4.858;2022-10-16T00:52:46;32.05;31.08;32.93;;
71026;Laerm;62048;52.312;4.858;2022-10-16T00:52:57;32.01;31.26;32.78;;
71026;Laerm;62048;52.312;4.858;2022-10-16T00:53:08;32.01;30.90;32.97;;
71026;Laerm;62048;52.312;4.858;2022-10-16T00:53:18;32.04;31.14;33.00;;
71026;Laerm;62048;52.312;4.858;2022-10-16T00:53:29;32.02;31.12;32.94;;
71026;Laerm;62048;52.312;4.858;2022-10-16T00:53:40;32.02;31.19;33.12;;
71026;Laerm;62048;52.312;4.858;2022-10-16T00:53:50;31.99;30.90;33.10;;
71026;Laerm;62048;52.312;4.858;2022-10-16T00:54:02;31.97;31.05;32.86;;
71026;Laerm;62048;52.312;4.858;2022-10-16T00:54:14;32.01;30.99;32.98;;
71026;Laerm;62048;52.312;4.858;2022-10-16T00:54:26;32.00;31.20;33.04;;
71026;Laerm;62048;52.312;4.858;2022-10-16T00:54:37;32.01;30.90;33.00;;
71026;Laerm;62048;52.312;4.858;2022-10-16T00:54:47;32.02;31.03;32.89;;
71026;Laerm;62048;52.312;4.858;2022-10-16T00:54:59;32.02;31.06;32.93;;
71026;Laerm;62048;52.312;4.858;2022-10-16T00:55:10;32.03;31.04;33.29;;
71026;Laerm;62048;52.312;4.858;2022-10-16T00:55:20;31.99;31.17;32.74;;
71026;Laerm;62048;52.312;4.858;2022-10-16T00:55:31;32.01;31.10;32.96;;
71026;Laerm;62048;52.312;4.858;2022-10-16T00:55:41;32.02;31.23;33.00;;
71026;Laerm;62048;52.312;4.858;2022-10-16T00:55:51;32.01;30.92;32.98;;
71026;Laerm;62048;52.312;4.858;2022-10-16T00:56:02;32.03;31.07;33.09;;
71026;Laerm;62048;52.312;4.858;2022-10-16T00:56:13;32.03;31.16;33.05;;
71026;Laerm;62048;52.312;4.858;2022-10-16T00:56:23;32.01;31.13;32.89;;
71026;Laerm;62048;52.312;4.858;2022-10-16T00:56:33;32.05;31.29;33.05;;
71026;Laerm;62048;52.312;4.858;2022-10-16T00:56:43;32.02;31.06;32.93;;
71026;Laerm;62048;52.312;4.858;2022-10-16T00:56:55;32.03;31.25;32.97;;
71026;Laerm;62048;52.312;4.858;2022-10-16T00:57:06;32.04;31.23;32.98;;
71026;Laerm;62048;52.312;4.858;2022-10-16T00:57:17;32.02;31.03;33.09;;
71026;Laerm;62048;52.312;4.858;2022-10-16T00:57:27;32.02;31.00;32.96;;
71026;Laerm;62048;52.312;4.858;2022-10-16T00:57:37;32.02;31.32;32.85;;
71026;Laerm;62048;52.312;4.858;2022-10-16T00:57:48;32.05;30.96;32.88;;
71026;Laerm;62048;52.312;4.858;2022-10-16T00:57:59;32.01;31.05;33.12;;
71026;Laerm;62048;52.312;4.858;2022-10-16T00:58:10;32.07;31.19;33.40;;
71026;Laerm;62048;52.312;4.858;2022-10-16T00:58:20;32.03;31.13;32.95;;
71026;Laerm;62048;52.312;4.858;2022-10-16T00:58:31;32.01;31.19;32.89;;
71026;Laerm;62048;52.312;4.858;2022-10-16T00:58:41;32.04;31.30;33.09;;
71026;Laerm;62048;52.312;4.858;2022-10-16T00:58:52;32.04;31.01;32.81;;
71026;Laerm;62048;52.312;4.858;2022-10-16T00:59:14;32.05;31.22;32.86;;
71026;Laerm;62048;52.312;4.858;2022-10-16T00:59:29;32.00;30.98;33.08;;
71026;Laerm;62048;52.312;4.858;2022-10-16T00:59:40;32.05;31.10;33.03;;
71026;Laerm;62048;52.312;4.858;2022-10-16T00:59:51;32.02;31.04;32.82;;
71026;Laerm;62048;52.312;4.858;2022-10-16T01:00:03;31.98;31.18;32.70;;
71026;Laerm;62048;52.312;4.858;2022-10-16T01:00:17;32.02;31.05;32.97;;
71026;Laerm;62048;52.312;4.858;2022-10-16T01:00:28;32.01;31.11;33.07;;
71026;Laerm;62048;52.312;4.858;2022-10-16T01:00:39;32.07;31.25;32.92;;
71026;Laerm;62048;52.312;4.858;2022-10-16T01:00:49;32.03;31.26;32.78;;
71026;Laerm;62048;52.312;4.858;2022-10-16T01:00:59;32.01;30.88;33.12;;
71026;Laerm;62048;52.312;4.858;2022-10-16T01:01:09;32.00;30.94;33.07;;
71026;Laerm;62048;52.312;4.858;2022-10-16T01:01:20;32.02;30.93;32.83;;
71026;Laerm;62048;52.312;4.858;2022-10-16T01:01:30;32.04;30.94;32.87;;
71026;Laerm;62048;52.312;4.858;2022-10-16T01:01:40;32.02;31.26;32.90;;
71026;Laerm;62048;52.312;4.858;2022-10-16T01:01:51;32.01;31.23;32.78;;
71026;Laerm;62048;52.312;4.858;2022-10-16T01:02:02;32.00;31.22;33.06;;
71026;Laerm;62048;52.312;4.858;2022-10-16T01:02:15;32.02;31.00;32.95;;
71026;Laerm;62048;52.312;4.858;2022-10-16T01:02:25;32.01;30.96;32.94;;
71026;Laerm;62048;52.312;4.858;2022-10-16T01:02:36;32.05;31.00;32.89;;
71026;Laerm;62048;52.312;4.858;2022-10-16T01:02:56;32.03;31.08;33.00;;
71026;Laerm;62048;52.312;4.858;2022-10-16T01:03:22;32.03;30.78;32.86;;